Time;durP1;ratioP1;P1;durP2;ratioP2;P2;SDS_P1;SDS_P2;PMS_P1;PMS_P2;Temp;Humidity;BMP_temperature;BMP_pressure;BME280_temperature;BME280_humidity;BME280_pressure;Samples;Min_cycle;Max_cycle;Signal;HPM_P1;HPM_P2
2023/03/09 00:01:25;;;;;;;43.60;14.07;;;;;;;;;;5012043;28;20071;-69
2023/03/09 00:03:52;;;;;;;43.65;13.13;;;;;;;;;;5012025;28;20038;-70
2023/03/09 00:06:18;;;;;;;42.72;13.60;;;;;;;;;;5011872;28;20509;-68
2023/03/09 00:08:45;;;;;;;39.78;14.00;;;;;;;;;;5011853;28;20061;-68
2023/03/09 00:11:11;;;;;;;41.13;13.55;;;;;;;;;;5012027;28;20022;-70
2023/03/09 00:13:37;;;;;;;46.35;14.65;;;;;;;;;;5010900;28;20033;-68
2023/03/09 00:16:14;;;;;;;52.90;15.23;;;;;;;;;;5011826;28;20387;-70
2023/03/09 00:18:41;;;;;;;49.75;13.18;;;;;;;;;;5011823;28;20022;-69
2023/03/09 00:21:07;;;;;;;47.83;14.07;;;;;;;;;;5011725;28;20643;-68
2023/03/09 00:23:33;;;;;;;45.00;13.25;;;;;;;;;;5011692;28;20519;-68
2023/03/09 00:26:06;;;;;;;53.25;14.90;;;;;;;;;;5011140;28;20021;-68
2023/03/09 00:28:32;;;;;;;54.08;13.43;;;;;;;;;;5011806;28;20022;-69
2023/03/09 00:31:03;;;;;;;61.08;15.13;;;;;;;;;;5010812;28;20519;-69
2023/03/09 00:33:29;;;;;;;59.70;14.68;;;;;;;;;;5011626;28;20022;-69
2023/03/09 00:35:55;;;;;;;50.78;13.93;;;;;;;;;;5011648;28;20442;-69
2023/03/09 00:38:21;;;;;;;52.78;14.77;;;;;;;;;;5011615;28;20410;-68
2023/03/09 00:40:47;;;;;;;48.65;13.70;;;;;;;;;;5011476;28;20101;-69
2023/03/09 00:43:13;;;;;;;46.97;13.75;;;;;;;;;;5011396;28;20378;-69
2023/03/09 00:45:39;;;;;;;43.90;13.07;;;;;;;;;;5011591;28;20026;-69
2023/03/09 00:48:05;;;;;;;38.70;12.15;;;;;;;;;;5010653;28;20501;-69
2023/03/09 00:50:31;;;;;;;44.55;12.43;;;;;;;;;;5010256;28;20386;-69
2023/03/09 00:52:58;;;;;;;47.40;13.50;;;;;;;;;;5011381;28;20042;-70
2023/03/09 00:55:24;;;;;;;47.78;13.52;;;;;;;;;;5011419;28;20117;-68
2023/03/09 00:57:50;;;;;;;48.67;13.68;;;;;;;;;;5011531;28;20029;-69
2023/03/09 01:00:16;;;;;;;60.53;15.82;;;;;;;;;;5011072;28;20029;-69
2023/03/09 01:02:42;;;;;;;56.25;15.45;;;;;;;;;;5011252;28;20034;-69
2023/03/09 01:05:10;;;;;;;54.65;15.65;;;;;;;;;;5010543;28;20033;-69
2023/03/09 01:07:36;;;;;;;57.05;15.38;;;;;;;;;;5011323;28;20487;-69
2023/03/09 01:10:03;;;;;;;61.95;15.68;;;;;;;;;;5011187;28;20052;-68
2023/03/09 01:12:29;;;;;;;52.65;14.70;;;;;;;;;;5011361;28;20053;-68
2023/03/09 01:14:56;;;;;;;45.47;13.77;;;;;;;;;;5011242;28;20033;-68
2023/03/09 01:17:22;;;;;;;49.85;14.75;;;;;;;;;;5011363;28;20157;-68
2023/03/09 01:19:48;;;;;;;43.65;12.23;;;;;;;;;;5011210;28;20084;-71
2023/03/09 01:22:14;;;;;;;44.40;12.10;;;;;;;;;;5009902;28;20555;-68
2023/03/09 01:24:41;;;;;;;36.97;12.07;;;;;;;;;;5011014;28;20045;-68
2023/03/09 01:27:07;;;;;;;41.78;12.65;;;;;;;;;;5011265;28;20122;-70
2023/03/09 01:29:33;;;;;;;38.70;11.75;;;;;;;;;;5009869;28;20494;-69
2023/03/09 01:31:59;;;;;;;47.15;13.35;;;;;;;;;;5011102;28;20109;-69
2023/03/09 01:34:26;;;;;;;38.25;11.63;;;;;;;;;;5009848;28;20426;-68
2023/03/09 01:36:52;;;;;;;44.17;13.00;;;;;;;;;;5012270;28;20364;-68
2023/03/09 01:39:19;;;;;;;39.67;10.77;;;;;;;;;;5013837;28;20026;-68
2023/03/09 01:41:45;;;;;;;39.25;11.40;;;;;;;;;;5014788;28;20026;-68
2023/03/09 01:44:14;;;;;;;36.13;10.88;;;;;;;;;;5014331;28;20038;-69
2023/03/09 01:46:48;;;;;;;42.13;12.55;;;;;;;;;;4996923;28;20029;-68
2023/03/09 01:49:17;;;;;;;44.45;12.70;;;;;;;;;;5014618;28;20026;-68
2023/03/09 01:51:47;;;;;;;45.50;12.75;;;;;;;;;;5013184;28;20187;-68
2023/03/09 01:54:17;;;;;;;36.75;12.00;;;;;;;;;;5014356;28;20033;-68
2023/03/09 01:56:44;;;;;;;39.10;13.38;;;;;;;;;;5013344;28;20038;-68
2023/03/09 01:59:11;;;;;;;44.50;13.50;;;;;;;;;;5014151;28;20030;-69
2023/03/09 02:01:37;;;;;;;42.47;13.27;;;;;;;;;;5014254;28;20053;-68
2023/03/09 02:04:08;;;;;;;39.55;13.60;;;;;;;;;;5014164;28;20386;-67
2023/03/09 02:06:35;;;;;;;39.58;12.85;;;;;;;;;;5014314;28;20133;-68
2023/03/09 02:09:16;;;;;;;54.92;15.43;;;;;;;;;;5014079;28;20091;-67
2023/03/09 02:11:42;;;;;;;51.08;16.13;;;;;;;;;;5012991;28;20037;-68
2023/03/09 02:14:08;;;;;;;43.22;15.25;;;;;;;;;;5014098;28;20109;-68
2023/03/09 02:16:35;;;;;;;44.78;14.65;;;;;;;;;;5013777;28;20467;-67
2023/03/09 02:19:01;;;;;;;51.58;14.88;;;;;;;;;;5013933;28;20053;-67
2023/03/09 02:21:43;;;;;;;49.00;15.70;;;;;;;;;;5013739;28;20646;-68
2023/03/09 02:24:09;;;;;;;;;;;;;;;;;;5014267;28;20038;-68
2023/03/09 02:26:35;;;;;;;45.60;13.38;;;;;;;;;;5013752;28;20358;-68
2023/03/09 02:29:01;;;;;;;36.45;12.38;;;;;;;;;;5012929;28;20045;-69
2023/03/09 02:31:27;;;;;;;37.70;13.32;;;;;;;;;;5013580;28;20025;-69
2023/03/09 02:33:53;;;;;;;41.78;15.30;;;;;;;;;;5013722;28;20118;-68
2023/03/09 02:36:21;;;;;;;45.65;13.60;;;;;;;;;;5013296;28;20073;-67
2023/03/09 02:38:47;;;;;;;38.88;13.43;;;;;;;;;;5013732;28;20572;-68
2023/03/09 02:41:13;;;;;;;38.58;12.55;;;;;;;;;;5013860;28;20458;-70
2023/03/09 02:44:05;;;;;;;41.10;12.10;;;;;;;;;;5013428;28;20034;-68
2023/03/09 02:46:31;;;;;;;41.30;11.82;;;;;;;;;;5012112;28;20038;-68
2023/03/09 02:48:58;;;;;;;41.65;11.18;;;;;;;;;;5012708;28;20030;-68
2023/03/09 02:51:24;;;;;;;38.70;11.60;;;;;;;;;;5013544;28;20033;-69
2023/03/09 02:53:50;;;;;;;41.50;11.10;;;;;;;;;;5013251;28;20030;-68
2023/03/09 02:56:16;;;;;;;48.40;12.50;;;;;;;;;;5013133;28;20085;-67
2023/03/09 02:58:42;;;;;;;39.08;11.13;;;;;;;;;;5011882;28;20072;-68
2023/03/09 03:01:08;;;;;;;38.30;11.80;;;;;;;;;;5013244;28;20105;-69
2023/03/09 03:03:34;;;;;;;41.67;11.88;;;;;;;;;;5012121;28;20052;-68
2023/03/09 03:06:00;;;;;;;45.15;11.65;;;;;;;;;;5013150;28;20030;-68
2023/03/09 03:08:26;;;;;;;37.85;11.13;;;;;;;;;;5013154;28;20387;-68
2023/03/09 03:10:52;;;;;;;44.33;11.60;;;;;;;;;;5013038;28;20026;-68
2023/03/09 03:13:18;;;;;;;49.72;12.05;;;;;;;;;;5012942;28;20049;-68
2023/03/09 03:15:44;;;;;;;43.70;11.38;;;;;;;;;;5012776;28;20038;-68
2023/03/09 03:18:10;;;;;;;44.88;11.30;;;;;;;;;;5012778;28;20029;-68
2023/03/09 03:20:36;;;;;;;44.30;11.68;;;;;;;;;;5010492;28;20064;-67
2023/03/09 03:23:02;;;;;;;48.55;13.25;;;;;;;;;;5012626;28;20495;-69
2023/03/09 03:25:28;;;;;;;44.13;11.80;;;;;;;;;;5012683;28;20034;-68
2023/03/09 03:27:55;;;;;;;51.33;12.05;;;;;;;;;;5012541;28;20022;-68
2023/03/09 03:30:21;;;;;;;52.90;12.73;;;;;;;;;;5012604;28;20088;-67
2023/03/09 03:32:52;;;;;;;49.38;12.15;;;;;;;;;;5012582;28;20026;-69
2023/03/09 03:35:18;;;;;;;47.05;13.50;;;;;;;;;;5012561;28;20105;-67
2023/03/09 03:37:44;;;;;;;60.72;13.40;;;;;;;;;;5011622;28;20088;-68
2023/03/09 03:40:11;;;;;;;47.83;12.90;;;;;;;;;;5012322;28;20018;-67
2023/03/09 03:42:37;;;;;;;56.35;12.13;;;;;;;;;;5012342;28;20026;-67
2023/03/09 03:45:03;;;;;;;39.60;11.52;;;;;;;;;;5012141;28;20026;-68
2023/03/09 03:47:29;;;;;;;48.13;12.55;;;;;;;;;;5012313;28;20058;-67
2023/03/09 03:49:55;;;;;;;53.70;11.95;;;;;;;;;;5012119;28;20387;-68
2023/03/09 03:52:23;;;;;;;60.80;12.43;;;;;;;;;;5011232;28;20372;-68
2023/03/09 03:54:49;;;;;;;46.58;11.75;;;;;;;;;;5012125;28;20026;-69
2023/03/09 03:57:15;;;;;;;35.25;10.35;;;;;;;;;;5012260;28;20034;-66
2023/03/09 03:59:42;;;;;;;35.80;10.98;;;;;;;;;;5011532;28;20419;-69
2023/03/09 04:02:08;;;;;;;58.42;12.38;;;;;;;;;;5011574;28;20025;-69
2023/03/09 04:04:34;;;;;;;48.83;12.13;;;;;;;;;;5012015;28;20523;-68
2023/03/09 04:07:00;;;;;;;58.13;13.55;;;;;;;;;;5012095;28;20029;-68
2023/03/09 04:09:26;;;;;;;99.60;14.77;;;;;;;;;;5011214;28;20030;-68
2023/03/09 04:11:52;;;;;;;134.13;15.30;;;;;;;;;;5011934;28;20398;-67
2023/03/09 04:14:18;;;;;;;109.78;15.10;;;;;;;;;;5011791;28;20022;-68
2023/03/09 04:16:44;;;;;;;98.75;15.68;;;;;;;;;;5011745;28;20029;-68
2023/03/09 04:19:10;;;;;;;76.25;14.05;;;;;;;;;;5011858;28;20030;-66
2023/03/09 04:21:36;;;;;;;93.47;15.05;;;;;;;;;;5011747;28;20056;-68
2023/03/09 04:24:02;;;;;;;73.35;13.68;;;;;;;;;;5011829;28;20037;-68
2023/03/09 04:26:28;;;;;;;139.73;14.90;;;;;;;;;;5010682;28;20022;-68
2023/03/09 04:28:55;;;;;;;114.50;15.60;;;;;;;;;;5011542;28;20549;-68
2023/03/09 04:31:21;;;;;;;172.32;18.95;;;;;;;;;;5011954;28;20045;-68
2023/03/09 04:33:47;;;;;;;82.85;15.02;;;;;;;;;;5011550;28;20065;-68
2023/03/09 04:36:13;;;;;;;216.82;16.40;;;;;;;;;;5010526;28;20025;-68
2023/03/09 04:38:39;;;;;;;123.03;15.77;;;;;;;;;;5011508;28;20034;-68
2023/03/09 04:41:06;;;;;;;83.68;16.15;;;;;;;;;;5010212;28;20176;-68
2023/03/09 04:43:32;;;;;;;78.10;14.77;;;;;;;;;;5011412;28;20228;-67
2023/03/09 04:45:58;;;;;;;82.28;16.00;;;;;;;;;;5011497;28;20030;-67
2023/03/09 04:48:24;;;;;;;65.60;13.95;;;;;;;;;;5011537;28;20081;-67
2023/03/09 04:50:50;;;;;;;91.75;14.43;;;;;;;;;;5011406;28;20032;-67
2023/03/09 04:53:16;;;;;;;70.32;13.05;;;;;;;;;;5010236;28;20486;-67
2023/03/09 04:55:42;;;;;;;64.05;13.32;;;;;;;;;;5011421;28;20052;-67
2023/03/09 04:58:08;;;;;;;46.30;12.52;;;;;;;;;;5011412;28;20026;-68
2023/03/09 05:00:34;;;;;;;47.15;10.93;;;;;;;;;;5011567;28;20022;-68
2023/03/09 05:03:00;;;;;;;50.60;11.93;;;;;;;;;;5011303;28;20417;-69
2023/03/09 05:05:26;;;;;;;65.72;12.95;;;;;;;;;;5011248;28;20403;-68
2023/03/09 05:07:53;;;;;;;58.92;14.63;;;;;;;;;;5011417;28;20022;-69
2023/03/09 05:10:19;;;;;;;63.72;12.93;;;;;;;;;;5010367;28;20036;-67
2023/03/09 05:12:46;;;;;;;58.58;12.80;;;;;;;;;;5014049;28;20057;-68
2023/03/09 05:15:12;;;;;;;67.68;13.35;;;;;;;;;;5014947;28;20026;-67
2023/03/09 05:17:38;;;;;;;59.22;13.40;;;;;;;;;;5014941;28;20029;-67
2023/03/09 05:20:09;;;;;;;49.92;12.75;;;;;;;;;;5015172;28;20475;-67
2023/03/09 05:22:37;;;;;;;59.33;13.18;;;;;;;;;;5014888;28;20045;-69
2023/03/09 05:25:04;;;;;;;50.42;13.40;;;;;;;;;;5015048;28;20479;-67
2023/03/09 05:27:30;;;;;;;72.05;13.95;;;;;;;;;;5013935;28;20038;-67
2023/03/09 05:29:57;;;;;;;72.00;14.23;;;;;;;;;;5014873;28;20026;-68
2023/03/09 05:32:23;;;;;;;61.17;13.85;;;;;;;;;;5013675;28;20026;-68
2023/03/09 05:34:49;;;;;;;66.95;14.90;;;;;;;;;;5014944;28;20022;-68
2023/03/09 05:37:15;;;;;;;76.65;15.55;;;;;;;;;;5014818;28;20639;-68
2023/03/09 05:39:41;;;;;;;67.63;14.13;;;;;;;;;;5011695;28;20030;-67
2023/03/09 05:42:07;;;;;;;74.40;14.23;;;;;;;;;;5014821;28;20126;-67
2023/03/09 05:44:33;;;;;;;70.53;13.55;;;;;;;;;;5014307;28;20613;-67
2023/03/09 05:46:59;;;;;;;70.95;15.70;;;;;;;;;;5014575;28;20022;-68
2023/03/09 05:49:30;;;;;;;68.53;14.75;;;;;;;;;;5012540;28;20474;-67
2023/03/09 05:51:56;;;;;;;73.97;15.27;;;;;;;;;;5014399;28;20456;-67
2023/03/09 05:54:23;;;;;;;75.03;14.32;;;;;;;;;;5014406;28;20053;-69
2023/03/09 05:56:49;;;;;;;73.85;14.85;;;;;;;;;;5014281;28;20510;-67
2023/03/09 05:59:15;;;;;;;66.97;13.95;;;;;;;;;;5014456;28;20108;-70
2023/03/09 06:01:41;;;;;;;71.20;15.32;;;;;;;;;;5014139;28;20467;-68
2023/03/09 06:04:12;;;;;;;76.15;15.23;;;;;;;;;;5014284;28;20549;-66
2023/03/09 06:06:39;;;;;;;66.43;14.10;;;;;;;;;;5003189;28;20033;-67
2023/03/09 06:09:05;;;;;;;50.70;13.25;;;;;;;;;;4994405;28;20028;-67
2023/03/09 06:11:31;;;;;;;63.50;13.57;;;;;;;;;;4994448;28;20022;-66
2023/03/09 06:13:57;;;;;;;67.28;13.55;;;;;;;;;;4994409;28;20483;-67
2023/03/09 06:16:24;;;;;;;64.90;12.57;;;;;;;;;;5012122;28;20458;-67
2023/03/09 06:18:50;;;;;;;52.30;13.75;;;;;;;;;;5013619;28;20089;-67
2023/03/09 06:21:16;;;;;;;63.03;12.90;;;;;;;;;;5011947;28;20041;-67
2023/03/09 06:23:43;;;;;;;61.67;13.32;;;;;;;;;;5011877;28;20033;-67
2023/03/09 06:26:11;;;;;;;47.58;13.00;;;;;;;;;;5013614;28;20083;-67
2023/03/09 06:28:37;;;;;;;60.45;14.50;;;;;;;;;;5013414;28;20610;-67
2023/03/09 06:31:07;;;;;;;68.43;14.93;;;;;;;;;;5013239;28;20081;-66
2023/03/09 06:33:33;;;;;;;62.70;13.98;;;;;;;;;;5009512;28;20034;-67
2023/03/09 06:36:00;;;;;;;59.85;15.07;;;;;;;;;;5013486;28;20494;-68
2023/03/09 06:38:27;;;;;;;66.65;13.90;;;;;;;;;;5013592;28;20105;-67
2023/03/09 06:40:54;;;;;;;67.63;15.82;;;;;;;;;;5000646;28;20085;-68
2023/03/09 06:43:20;;;;;;;62.55;14.02;;;;;;;;;;4993844;28;20114;-67
2023/03/09 06:45:46;;;;;;;54.40;13.90;;;;;;;;;;5011678;28;20062;-67
2023/03/09 06:48:13;;;;;;;85.65;15.63;;;;;;;;;;5013380;28;20081;-67
2023/03/09 06:50:39;;;;;;;65.50;16.05;;;;;;;;;;5013120;28;20694;-66
2023/03/09 06:53:05;;;;;;;66.85;15.02;;;;;;;;;;5011608;28;20037;-68
2023/03/09 06:55:31;;;;;;;70.82;15.13;;;;;;;;;;5013144;28;20478;-68
2023/03/09 06:57:57;;;;;;;57.42;14.25;;;;;;;;;;5012703;28;20036;-67
2023/03/09 07:00:23;;;;;;;63.55;14.13;;;;;;;;;;5008550;28;20040;-68
2023/03/09 07:02:49;;;;;;;60.30;14.95;;;;;;;;;;5012568;28;20030;-69
2023/03/09 07:05:15;;;;;;;64.65;14.20;;;;;;;;;;5008763;28;20033;-67
2023/03/09 07:07:42;;;;;;;66.72;14.48;;;;;;;;;;5023327;28;20467;-67
2023/03/09 07:10:09;;;;;;;62.72;12.95;;;;;;;;;;5015368;28;20033;-67
2023/03/09 07:12:35;;;;;;;73.18;14.88;;;;;;;;;;5012661;28;20418;-67
2023/03/09 07:15:01;;;;;;;58.35;15.07;;;;;;;;;;5009011;28;20025;-67
2023/03/09 07:17:27;;;;;;;72.53;14.77;;;;;;;;;;5008596;28;20241;-69
2023/03/09 07:19:53;;;;;;;65.95;15.13;;;;;;;;;;4996793;28;20029;-68
2023/03/09 07:22:19;;;;;;;65.13;15.13;;;;;;;;;;5010007;28;20525;-67
2023/03/09 07:24:46;;;;;;;58.03;14.68;;;;;;;;;;5011070;28;20049;-67
2023/03/09 07:27:12;;;;;;;62.00;14.50;;;;;;;;;;5010138;28;20030;-68
2023/03/09 07:29:40;;;;;;;58.97;13.63;;;;;;;;;;5010924;28;20038;-68
2023/03/09 07:32:06;;;;;;;57.00;14.35;;;;;;;;;;5011464;28;20640;-68
2023/03/09 07:34:32;;;;;;;57.03;14.80;;;;;;;;;;5003122;28;20042;-69
2023/03/09 07:36:59;;;;;;;57.38;15.32;;;;;;;;;;5012386;28;20026;-68
2023/03/09 07:39:25;;;;;;;62.75;16.23;;;;;;;;;;5009215;28;20068;-67
2023/03/09 07:41:51;;;;;;;52.83;15.75;;;;;;;;;;5011238;28;20030;-67
2023/03/09 07:44:17;;;;;;;50.38;14.95;;;;;;;;;;5011480;28;20109;-67
2023/03/09 07:46:43;;;;;;;55.42;14.23;;;;;;;;;;5010794;28;20109;-67
2023/03/09 07:49:09;;;;;;;43.00;13.63;;;;;;;;;;5010872;28;20064;-69
2023/03/09 07:51:37;;;;;;;44.67;14.10;;;;;;;;;;5011516;28;20479;-68
2023/03/09 07:54:04;;;;;;;50.33;15.38;;;;;;;;;;5011619;28;20109;-69
2023/03/09 07:56:31;;;;;;;66.78;15.18;;;;;;;;;;5010582;28;20088;-68
2023/03/09 07:58:57;;;;;;;47.80;13.82;;;;;;;;;;5012258;28;20104;-68
2023/03/09 08:01:23;;;;;;;49.90;13.73;;;;;;;;;;5007590;28;20034;-69
2023/03/09 08:03:49;;;;;;;55.38;16.33;;;;;;;;;;5011222;28;20049;-68
2023/03/09 08:06:15;;;;;;;41.00;12.70;;;;;;;;;;5011587;28;20022;-69
2023/03/09 08:08:42;;;;;;;37.13;13.80;;;;;;;;;;5011991;28;20030;-68
2023/03/09 08:11:08;;;;;;;39.90;12.65;;;;;;;;;;5011763;28;20025;-67
2023/03/09 08:13:34;;;;;;;53.53;15.10;;;;;;;;;;5011800;28;20029;-68
2023/03/09 08:16:02;;;;;;;43.88;13.65;;;;;;;;;;5011758;28;20022;-69
2023/03/09 08:18:28;;;;;;;33.13;12.25;;;;;;;;;;5010809;28;20386;-69
2023/03/09 08:20:55;;;;;;;33.22;12.10;;;;;;;;;;5011471;28;20034;-67
2023/03/09 08:23:21;;;;;;;29.08;10.77;;;;;;;;;;5011789;28;20113;-68
2023/03/09 08:25:53;;;;;;;27.73;11.73;;;;;;;;;;5011920;28;20018;-69
2023/03/09 08:28:19;;;;;;;28.50;9.75;;;;;;;;;;5011617;28;20022;-70
2023/03/09 08:30:46;;;;;;;29.17;11.07;;;;;;;;;;5011562;28;20022;-69
2023/03/09 08:33:12;;;;;;;32.72;11.07;;;;;;;;;;5011811;28;20045;-68
2023/03/09 08:35:38;;;;;;;34.03;12.07;;;;;;;;;;5010896;28;20228;-68
2023/03/09 08:38:04;;;;;;;23.80;9.25;;;;;;;;;;5011326;28;20026;-69
2023/03/09 08:40:30;;;;;;;32.97;9.80;;;;;;;;;;5012067;28;20029;-69
2023/03/09 08:42:56;;;;;;;20.90;8.57;;;;;;;;;;5011403;28;20570;-68
2023/03/09 08:45:22;;;;;;;22.48;8.82;;;;;;;;;;5010194;28;20471;-68
2023/03/09 08:47:48;;;;;;;26.70;8.07;;;;;;;;;;5010773;28;20519;-69
2023/03/09 08:50:14;;;;;;;26.48;8.30;;;;;;;;;;5010390;28;20080;-69
2023/03/09 08:52:41;;;;;;;18.55;6.80;;;;;;;;;;5011503;28;20386;-68
2023/03/09 08:55:08;;;;;;;22.88;5.45;;;;;;;;;;5011306;28;20467;-68
2023/03/09 08:57:34;;;;;;;27.92;5.72;;;;;;;;;;5011252;28;20030;-69
2023/03/09 09:00:00;;;;;;;31.55;6.00;;;;;;;;;;5011219;28;20031;-69
2023/03/09 09:02:26;;;;;;;55.40;7.95;;;;;;;;;;5011409;28;20160;-67
2023/03/09 09:04:52;;;;;;;66.95;6.63;;;;;;;;;;5011232;28;20045;-67
2023/03/09 09:07:20;;;;;;;55.40;7.75;;;;;;;;;;5010365;28;20105;-68
2023/03/09 09:09:46;;;;;;;63.92;5.85;;;;;;;;;;5009935;28;20033;-68
2023/03/09 09:12:12;;;;;;;78.15;7.72;;;;;;;;;;5011129;28;20030;-69
2023/03/09 09:14:39;;;;;;;80.70;7.85;;;;;;;;;;5011281;28;20483;-69
2023/03/09 09:17:08;;;;;;;75.70;8.55;;;;;;;;;;5010285;28;20030;-69
2023/03/09 09:19:37;;;;;;;53.70;6.32;;;;;;;;;;5011255;28;20026;-71
2023/03/09 09:22:04;;;;;;;85.13;8.45;;;;;;;;;;5010671;28;20060;-69
2023/03/09 09:24:32;;;;;;;82.72;8.82;;;;;;;;;;5011090;28;20092;-68
2023/03/09 09:26:59;;;;;;;93.72;9.68;;;;;;;;;;5011103;28;20100;-69
2023/03/09 09:29:26;;;;;;;75.40;7.40;;;;;;;;;;5011203;28;20479;-68
2023/03/09 09:31:52;;;;;;;74.03;7.43;;;;;;;;;;5009990;28;20256;-68
2023/03/09 09:34:21;;;;;;;56.67;7.03;;;;;;;;;;5010746;28;20096;-67
2023/03/09 09:36:47;;;;;;;85.72;8.73;;;;;;;;;;5011140;28;20030;-69
2023/03/09 09:39:13;;;;;;;81.53;7.15;;;;;;;;;;5008080;28;20022;-68
2023/03/09 09:41:44;;;;;;;65.82;6.78;;;;;;;;;;5011156;28;20509;-70
2023/03/09 09:44:16;;;;;;;71.18;6.93;;;;;;;;;;5009707;28;20040;-70
2023/03/09 09:46:42;;;;;;;63.30;6.30;;;;;;;;;;5011022;28;20025;-69
2023/03/09 09:49:14;;;;;;;44.22;6.80;;;;;;;;;;5011479;28;20183;-67
2023/03/09 09:51:49;;;;;;;74.63;8.13;;;;;;;;;;5010865;28;20257;-67
2023/03/09 09:54:27;;;;;;;66.78;6.45;;;;;;;;;;5010882;28;20113;-68
2023/03/09 09:56:59;;;;;;;81.70;7.68;;;;;;;;;;5009550;28;20029;-70
2023/03/09 09:59:25;;;;;;;72.72;9.55;;;;;;;;;;5012902;28;20124;-70
2023/03/09 10:01:55;;;;;;;69.45;6.60;;;;;;;;;;5014242;28;20057;-69
2023/03/09 10:04:28;;;;;;;61.67;5.22;;;;;;;;;;5014361;28;20034;-69
2023/03/09 10:06:55;;;;;;;65.28;7.57;;;;;;;;;;5014439;28;20038;-70
2023/03/09 10:09:24;;;;;;;31.88;5.10;;;;;;;;;;5014241;28;20032;-68
2023/03/09 10:11:53;;;;;;;70.75;6.78;;;;;;;;;;5013308;28;20022;-66
2023/03/09 10:14:24;;;;;;;51.53;6.43;;;;;;;;;;4994722;28;20030;-70
2023/03/09 10:17:11;;;;;;;49.60;5.85;;;;;;;;;;4994497;28;20121;-67
2023/03/09 10:19:38;;;;;;;36.17;4.80;;;;;;;;;;4994348;28;20198;-67
2023/03/09 10:22:16;;;;;;;54.17;5.00;;;;;;;;;;5000517;28;20099;-67
2023/03/09 10:24:43;;;;;;;46.05;6.85;;;;;;;;;;5013956;28;20042;-68
2023/03/09 10:27:19;;;;;;;47.38;6.32;;;;;;;;;;5012400;28;20026;-68
2023/03/09 10:29:51;;;;;;;37.95;4.45;;;;;;;;;;5013805;28;20034;-71
2023/03/09 10:32:21;;;;;;;41.55;5.72;;;;;;;;;;5012441;28;20056;-65
2023/03/09 10:34:59;;;;;;;40.22;5.50;;;;;;;;;;5008875;28;20022;-69
2023/03/09 10:37:28;;;;;;;44.97;5.20;;;;;;;;;;5008736;28;20026;-69
2023/03/09 10:39:54;;;;;;;45.78;6.40;;;;;;;;;;5010596;28;20061;-69
2023/03/09 10:42:24;;;;;;;63.20;7.60;;;;;;;;;;5002766;28;20378;-70
2023/03/09 10:45:09;;;;;;;57.55;6.40;;;;;;;;;;5013476;28;20475;-69
2023/03/09 10:47:47;;;;;;;51.67;6.18;;;;;;;;;;5013149;28;20530;-70
2023/03/09 10:50:14;;;;;;;49.22;6.88;;;;;;;;;;5010457;28;20026;-70
2023/03/09 10:52:40;;;;;;;42.53;6.35;;;;;;;;;;5002500;28;20077;-68
2023/03/09 10:55:22;;;;;;;39.75;4.47;;;;;;;;;;5011936;28;20029;-69
2023/03/09 10:58:14;;;;;;;37.70;4.75;;;;;;;;;;5011923;28;20406;-68
2023/03/09 11:00:40;;;;;;;;;;;;;;;;;;5011003;28;20042;-69
2023/03/09 11:03:19;;;;;;;44.63;5.53;;;;;;;;;;5011392;28;19921;-68
2023/03/09 11:05:45;;;;;;;46.55;6.03;;;;;;;;;;5010287;28;20161;-68
2023/03/09 11:08:21;;;;;;;39.95;5.57;;;;;;;;;;5009417;28;20105;-69
2023/03/09 11:10:48;;;;;;;50.25;6.57;;;;;;;;;;5012313;28;20451;-68
2023/03/09 11:13:19;;;;;;;45.90;8.40;;;;;;;;;;4997439;28;20022;-68
2023/03/09 11:16:03;;;;;;;38.17;6.30;;;;;;;;;;4993342;28;20543;-67
2023/03/09 11:18:30;;;;;;;44.05;5.18;;;;;;;;;;4993361;28;20046;-67
2023/03/09 11:20:56;;;;;;;34.80;5.07;;;;;;;;;;5009638;28;20042;-67
2023/03/09 11:23:41;;;;;;;49.00;6.70;;;;;;;;;;5013131;28;20053;-69
2023/03/09 11:26:07;;;;;;;31.88;6.90;;;;;;;;;;5010766;28;20394;-67
2023/03/09 11:28:40;;;;;;;31.38;5.05;;;;;;;;;;5010346;28;20544;-68
2023/03/09 11:31:20;;;;;;;35.13;4.20;;;;;;;;;;4995324;28;20034;-68
2023/03/09 11:33:48;;;;;;;46.95;6.13;;;;;;;;;;5010626;28;20550;-69
2023/03/09 11:36:17;;;;;;;45.30;5.43;;;;;;;;;;5009600;28;20537;-68
2023/03/09 11:38:44;;;;;;;52.40;5.25;;;;;;;;;;4992879;28;20133;-68
2023/03/09 11:41:16;;;;;;;53.95;6.45;;;;;;;;;;4993017;28;20033;-67
2023/03/09 11:43:42;;;;;;;;;;;;;;;;;;5003924;28;20045;-67
2023/03/09 11:46:12;;;;;;;34.72;5.72;;;;;;;;;;5005124;28;19910;-68
2023/03/09 11:48:42;;;;;;;51.17;6.45;;;;;;;;;;4993115;28;20446;-65
2023/03/09 11:51:29;;;;;;;43.30;6.22;;;;;;;;;;4997845;28;20049;-66
2023/03/09 11:53:58;;;;;;;62.15;6.43;;;;;;;;;;5009769;28;20030;-66
2023/03/09 11:56:34;;;;;;;57.20;7.90;;;;;;;;;;5010833;28;20026;-67
2023/03/09 11:59:20;;;;;;;41.80;5.22;;;;;;;;;;5003585;28;20027;-67
2023/03/09 12:01:53;;;;;;;37.50;4.75;;;;;;;;;;5011747;28;20064;-68
2023/03/09 12:04:19;;;;;;;33.13;5.13;;;;;;;;;;5007367;28;20092;-69
2023/03/09 12:06:53;;;;;;;38.58;6.07;;;;;;;;;;4992520;28;20374;-67
2023/03/09 12:09:30;;;;;;;53.67;5.43;;;;;;;;;;4999670;28;20038;-66
2023/03/09 12:11:58;;;;;;;45.67;4.60;;;;;;;;;;5011719;28;20475;-66
2023/03/09 12:14:33;;;;;;;43.38;4.95;;;;;;;;;;5012022;28;20080;-67
2023/03/09 12:17:03;;;;;;;37.58;4.70;;;;;;;;;;5006548;28;20092;-67
2023/03/09 12:19:31;;;;;;;36.58;4.88;;;;;;;;;;4999126;28;20608;-67
2023/03/09 12:22:03;;;;;;;33.88;6.88;;;;;;;;;;5038840;28;20042;-66
2023/03/09 12:24:34;;;;;;;44.75;6.45;;;;;;;;;;5011259;28;20125;-66
2023/03/09 12:27:00;;;;;;;40.67;5.28;;;;;;;;;;5011592;28;20018;-66
2023/03/09 12:29:37;;;;;;;33.45;5.70;;;;;;;;;;5006750;28;20399;-65
2023/03/09 12:32:22;;;;;;;44.90;6.38;;;;;;;;;;4992074;28;20424;-68
2023/03/09 12:34:49;;;;;;;37.30;4.40;;;;;;;;;;4993611;28;20419;-66
2023/03/09 12:37:30;;;;;;;45.22;6.35;;;;;;;;;;4999785;28;20037;-69
2023/03/09 12:40:15;;;;;;;41.53;4.68;;;;;;;;;;5009691;28;20037;-66
2023/03/09 12:42:42;;;;;;;53.05;5.63;;;;;;;;;;5011530;28;20030;-67
2023/03/09 12:45:14;;;;;;;37.63;5.70;;;;;;;;;;5009920;28;20116;-68
2023/03/09 12:47:51;;;;;;;36.28;4.10;;;;;;;;;;5011255;28;20101;-67
2023/03/09 12:50:23;;;;;;;44.45;7.32;;;;;;;;;;5002284;28;20041;-66
2023/03/09 12:53:00;;;;;;;32.58;4.70;;;;;;;;;;5007762;28;20037;-68
2023/03/09 12:55:48;;;;;;;50.08;6.95;;;;;;;;;;5011066;28;20041;-66
2023/03/09 12:58:17;;;;;;;36.78;5.50;;;;;;;;;;5011280;28;20018;-66
2023/03/09 13:00:54;;;;;;;46.40;5.28;;;;;;;;;;5006690;28;20038;-66
2023/03/09 13:03:36;;;;;;;42.03;5.03;;;;;;;;;;4991423;28;20038;-66
2023/03/09 13:06:03;;;;;;;33.95;4.20;;;;;;;;;;5021008;28;20034;-67
2023/03/09 13:08:35;;;;;;;46.97;7.13;;;;;;;;;;5004529;28;20073;-67
2023/03/09 13:11:20;;;;;;;31.35;5.20;;;;;;;;;;5010041;28;20030;-66
2023/03/09 13:13:46;;;;;;;39.40;5.88;;;;;;;;;;5011238;28;20018;-67
2023/03/09 13:16:31;;;;;;;44.35;4.40;;;;;;;;;;5010033;28;20033;-67
2023/03/09 13:19:16;;;;;;;51.03;6.03;;;;;;;;;;5011010;28;20029;-67
2023/03/09 13:21:42;;;;;;;34.67;4.88;;;;;;;;;;5021704;28;20129;-66
2023/03/09 13:24:13;;;;;;;34.05;4.30;;;;;;;;;;5010992;28;20034;-67
2023/03/09 13:26:42;;;;;;;28.23;4.13;;;;;;;;;;5009941;28;20026;-66
2023/03/09 13:29:09;;;;;;;34.00;6.20;;;;;;;;;;5009681;28;20368;-68
2023/03/09 13:31:36;;;;;;;44.05;5.13;;;;;;;;;;5010409;28;20109;-67
2023/03/09 13:34:03;;;;;;;35.97;3.95;;;;;;;;;;5014044;28;20033;-65
2023/03/09 13:36:31;;;;;;;31.75;4.20;;;;;;;;;;5014606;28;20030;-65
2023/03/09 13:39:03;;;;;;;17.10;3.63;;;;;;;;;;5012825;28;20033;-65
2023/03/09 13:41:29;;;;;;;38.88;4.65;;;;;;;;;;5012051;28;20025;-68
2023/03/09 13:43:56;;;;;;;0.75;0.75;;;;;;;;;;5007991;28;20498;-67
2023/03/09 13:46:22;;;;;;;0.20;0.20;;;;;;;;;;4997902;28;20057;-65
2023/03/09 13:48:53;;;;;;;0.10;0.10;;;;;;;;;;5023191;28;20407;-68
2023/03/09 13:51:22;;;;;;;0.20;0.20;;;;;;;;;;5014422;28;20489;-68
2023/03/09 13:53:48;;;;;;;3.22;1.27;;;;;;;;;;5013220;28;20057;-65
2023/03/09 13:56:15;;;;;;;5.40;4.95;;;;;;;;;;5014392;28;20029;-68
2023/03/09 13:58:42;;;;;;;0.10;0.10;;;;;;;;;;5013912;28;20022;-67
2023/03/09 14:01:18;;;;;;;0.22;0.22;;;;;;;;;;5012680;28;20044;-68
2023/03/09 14:03:48;;;;;;;0.20;0.20;;;;;;;;;;5000099;28;20034;-67
2023/03/09 14:06:15;;;;;;;3.90;3.67;;;;;;;;;;5014390;28;20076;-65
2023/03/09 14:08:43;;;;;;;0.20;0.20;;;;;;;;;;5014368;28;20495;-65
2023/03/09 14:11:15;;;;;;;0.47;0.47;;;;;;;;;;5013527;28;20029;-66
2023/03/09 14:13:41;;;;;;;;;;;;;;;;;;5013701;28;20022;-66
2023/03/09 14:16:12;;;;;;;0.20;0.20;;;;;;;;;;5013012;28;20362;-65
2023/03/09 14:18:49;;;;;;;0.20;0.20;;;;;;;;;;5014015;28;20121;-65
2023/03/09 14:21:26;;;;;;;0.20;0.20;;;;;;;;;;5013756;28;20057;-66
2023/03/09 14:23:52;;;;;;;0.20;0.20;;;;;;;;;;5011772;28;20107;-67
2023/03/09 14:26:31;;;;;;;0.20;0.20;;;;;;;;;;5011772;28;20030;-66
2023/03/09 14:29:00;;;;;;;0.20;0.20;;;;;;;;;;5011696;28;20390;-65
2023/03/09 14:31:26;;;;;;;0.20;0.20;;;;;;;;;;5013164;28;20080;-66